Amberson, PA (17210)

7:49 PM EDT on July 28, 2016 (GMT -0400)
Upper Mifflin Township | | Change Station
Active Advisory: Areal Flood Watch

Elev 659 ft 40.21 °N, 77.49 °W | Updated 9 seconds ago

Light Rain
Light Rain
71.6 °F
Feels Like 71.6 °F
N
3.1
Wind Variable Wind from SE
Gusts 3.1 mph

Today
High -- | Low -- °F
--% Chance of Precip.
Yesterday
High -- | Low -- °F
Precip. -- in
Pressure 29.90 in
Visibility 3.0 miles
Clouds Scattered Clouds 5000 ft
Mostly Cloudy 7500 ft
Overcast 10000 ft
Dew Point 71 °F
Humidity 99%
Rainfall 0.02 in
Snow Depth Not available.
6:05 AM 8:28 PM
Waning Crescent, 27% visible
SPECI KHGR 282302Z 00000KT 3SM -RA SCT050 BKN075 OVC100 23/20 A2990 RMK AO2 P0002 T02330200
Pressure 29.90 in
Visibility 3.0 miles
Clouds Scattered Clouds 5000 ft
Mostly Cloudy 7500 ft
Overcast 10000 ft
Dew Point 71 °F
Humidity 99%
Rainfall 0.02 in
Snow Depth Not available.
6:05 AM 8:28 PM
Waning Crescent, 27% visible
SPECI KHGR 282302Z 00000KT 3SM -RA SCT050 BKN075 OVC100 23/20 A2990 RMK AO2 P0002 T02330200

10-Day Weather Forecast

Almanac

Astronomy

Jul. 28, 2016 Rise Set
Actual Time
Civil Twilight
Nautical Twilight
Astronomical Twilight
Moon
Length of Visible Light
Length of Day
Tomorrow will be .
, % of the Moon is Illuminated

Today's Extremes

State Highs State Lows

Community

WunderPhotos

Upload Photos

1,928,236 photos uploaded!

WunderBlog® & News

Nearby

Air Quality

  Air Quality AQ Index Pollutant
Not available.

Snow Depth

Station Depth Elevation

Earthquake Activity

City Distance Mag. Time & Date
Minimum magnitude displayed is 2.5.

Coastal Water Temperatures

Place Temperature

Stations

Nearby Weather Stations

Station Location Temp. Windchill Dew Point Humidity Wind Precip. Elev Updated Type
                   

Watches & Warnings

Areal Flood Watch
Issued: 1:27 PM EDT Jul. 28, 2016 – National Weather Service

... Flood Watch in effect through Friday morning...

The National Weather Service in State College has issued a

* Flood Watch for a portion of central Pennsylvania... including
the following areas... Adams... Cumberland... Dauphin...
Franklin... Lancaster... Lebanon... Perry and York.

* Through Friday morning

* slow moving showers and thunderstorms will develop this
afternoon and continue overnight. Some of the showers will
contain torrential downpours which could lead to flash flooding.

* The potential for rainfall amounts of over three inches in a few
hours is possible... especially in urban areas.

Precautionary/preparedness actions...

Review flood safety and preparedness information at
tadd.Weather.Gov.



CR